sensor_id;sensor_type;location;lat;lon;timestamp;temperature;humidity
10536;DHT22;5316;49.538;8.352;2024-02-16T00:01:03;12.80;57.00
10536;DHT22;5316;49.538;8.352;2024-02-16T00:03:31;12.80;99.90
10536;DHT22;5316;49.538;8.352;2024-02-16T00:05:57;12.70;1.00
10536;DHT22;5316;49.538;8.352;2024-02-16T00:08:25;12.80;99.90
10536;DHT22;5316;49.538;8.352;2024-02-16T00:10:52;12.70;1.00
10536;DHT22;5316;49.538;8.352;2024-02-16T00:13:19;12.70;1.00
10536;DHT22;5316;49.538;8.352;2024-02-16T00:15:46;12.70;1.00
10536;DHT22;5316;49.538;8.352;2024-02-16T00:18:12;12.70;99.90
10536;DHT22;5316;49.538;8.352;2024-02-16T00:20:39;12.70;99.90
10536;DHT22;5316;49.538;8.352;2024-02-16T00:23:06;12.60;99.90
10536;DHT22;5316;49.538;8.352;2024-02-16T00:25:34;12.60;99.90
10536;DHT22;5316;49.538;8.352;2024-02-16T00:28:01;12.60;99.90
10536;DHT22;5316;49.538;8.352;2024-02-16T00:30:28;12.60;99.90
10536;DHT22;5316;49.538;8.352;2024-02-16T00:32:55;12.60;99.90
10536;DHT22;5316;49.538;8.352;2024-02-16T00:35:22;12.60;1.00
10536;DHT22;5316;49.538;8.352;2024-02-16T00:37:49;12.60;1.00
10536;DHT22;5316;49.538;8.352;2024-02-16T00:40:16;12.60;1.00
10536;DHT22;5316;49.538;8.352;2024-02-16T00:42:44;12.60;1.00
10536;DHT22;5316;49.538;8.352;2024-02-16T00:45:10;12.60;1.00
10536;DHT22;5316;49.538;8.352;2024-02-16T00:47:37;12.60;1.00
10536;DHT22;5316;49.538;8.352;2024-02-16T00:50:05;12.60;1.00
10536;DHT22;5316;49.538;8.352;2024-02-16T00:52:34;12.50;9.90
10536;DHT22;5316;49.538;8.352;2024-02-16T00:55:01;12.50;6.50
10536;DHT22;5316;49.538;8.352;2024-02-16T00:57:29;12.50;21.30
10536;DHT22;5316;49.538;8.352;2024-02-16T00:59:57;12.50;92.00
10536;DHT22;5316;49.538;8.352;2024-02-16T01:02:24;12.50;99.90
10536;DHT22;5316;49.538;8.352;2024-02-16T01:04:51;12.50;99.90
10536;DHT22;5316;49.538;8.352;2024-02-16T01:07:18;12.50;99.90
10536;DHT22;5316;49.538;8.352;2024-02-16T01:09:45;12.50;99.90
10536;DHT22;5316;49.538;8.352;2024-02-16T01:12:11;12.50;99.90
10536;DHT22;5316;49.538;8.352;2024-02-16T01:14:38;12.50;99.90
10536;DHT22;5316;49.538;8.352;2024-02-16T01:17:06;12.50;99.90
10536;DHT22;5316;49.538;8.352;2024-02-16T01:19:33;12.60;99.90
10536;DHT22;5316;49.538;8.352;2024-02-16T01:22:00;12.60;99.90
10536;DHT22;5316;49.538;8.352;2024-02-16T01:24:27;12.60;99.90
10536;DHT22;5316;49.538;8.352;2024-02-16T01:26:54;12.60;99.90
10536;DHT22;5316;49.538;8.352;2024-02-16T01:29:20;12.60;99.90
10536;DHT22;5316;49.538;8.352;2024-02-16T01:31:48;12.60;99.90
10536;DHT22;5316;49.538;8.352;2024-02-16T01:34:16;12.70;99.90
10536;DHT22;5316;49.538;8.352;2024-02-16T01:36:42;12.70;99.20
10536;DHT22;5316;49.538;8.352;2024-02-16T01:39:09;12.70;41.20
10536;DHT22;5316;49.538;8.352;2024-02-16T01:41:38;12.70;56.10
10536;DHT22;5316;49.538;8.352;2024-02-16T01:44:05;12.70;93.80
10536;DHT22;5316;49.538;8.352;2024-02-16T01:46:32;12.70;59.50
10536;DHT22;5316;49.538;8.352;2024-02-16T01:48:59;12.70;99.90
10536;DHT22;5316;49.538;8.352;2024-02-16T01:51:30;12.60;99.90
10536;DHT22;5316;49.538;8.352;2024-02-16T01:53:57;12.60;99.90
10536;DHT22;5316;49.538;8.352;2024-02-16T01:56:24;12.60;99.90
10536;DHT22;5316;49.538;8.352;2024-02-16T01:58:52;12.60;99.90
10536;DHT22;5316;49.538;8.352;2024-02-16T02:01:19;12.50;99.90
10536;DHT22;5316;49.538;8.352;2024-02-16T02:03:45;12.50;99.90
10536;DHT22;5316;49.538;8.352;2024-02-16T02:06:12;12.50;99.90
10536;DHT22;5316;49.538;8.352;2024-02-16T02:08:41;12.50;99.90
10536;DHT22;5316;49.538;8.352;2024-02-16T02:11:07;12.50;1.00
10536;DHT22;5316;49.538;8.352;2024-02-16T02:13:34;12.40;1.00
10536;DHT22;5316;49.538;8.352;2024-02-16T02:16:02;12.40;1.00
10536;DHT22;5316;49.538;8.352;2024-02-16T02:18:30;12.40;1.00
10536;DHT22;5316;49.538;8.352;2024-02-16T02:20:57;12.40;1.00
10536;DHT22;5316;49.538;8.352;2024-02-16T02:23:25;12.30;1.00
10536;DHT22;5316;49.538;8.352;2024-02-16T02:25:52;12.40;1.00
10536;DHT22;5316;49.538;8.352;2024-02-16T02:28:19;12.40;1.00
10536;DHT22;5316;49.538;8.352;2024-02-16T02:30:49;12.30;1.00
10536;DHT22;5316;49.538;8.352;2024-02-16T02:33:15;12.30;1.00
10536;DHT22;5316;49.538;8.352;2024-02-16T02:35:42;12.30;1.00
10536;DHT22;5316;49.538;8.352;2024-02-16T02:38:09;12.20;1.00
10536;DHT22;5316;49.538;8.352;2024-02-16T02:40:37;12.30;1.00
10536;DHT22;5316;49.538;8.352;2024-02-16T02:43:04;12.20;1.00
10536;DHT22;5316;49.538;8.352;2024-02-16T02:45:31;12.20;1.00
10536;DHT22;5316;49.538;8.352;2024-02-16T02:47:58;12.20;1.00
10536;DHT22;5316;49.538;8.352;2024-02-16T02:50:25;12.20;1.00
10536;DHT22;5316;49.538;8.352;2024-02-16T02:52:52;12.20;1.00
10536;DHT22;5316;49.538;8.352;2024-02-16T02:55:19;12.10;1.00
10536;DHT22;5316;49.538;8.352;2024-02-16T02:57:47;12.10;1.00
10536;DHT22;5316;49.538;8.352;2024-02-16T03:00:14;12.10;1.00
10536;DHT22;5316;49.538;8.352;2024-02-16T03:02:41;12.10;1.00
10536;DHT22;5316;49.538;8.352;2024-02-16T03:05:09;12.10;1.00
10536;DHT22;5316;49.538;8.352;2024-02-16T03:07:37;12.10;1.00
10536;DHT22;5316;49.538;8.352;2024-02-16T03:10:04;12.10;1.00
10536;DHT22;5316;49.538;8.352;2024-02-16T03:12:32;12.10;1.00
10536;DHT22;5316;49.538;8.352;2024-02-16T03:15:00;12.10;1.00
10536;DHT22;5316;49.538;8.352;2024-02-16T03:17:27;12.40;1.00
10536;DHT22;5316;49.538;8.352;2024-02-16T03:19:54;12.20;1.00
10536;DHT22;5316;49.538;8.352;2024-02-16T03:22:20;12.20;1.00
10536;DHT22;5316;49.538;8.352;2024-02-16T03:24:47;12.20;99.90
10536;DHT22;5316;49.538;8.352;2024-02-16T03:27:14;12.20;99.90
10536;DHT22;5316;49.538;8.352;2024-02-16T03:29:40;12.20;99.90
10536;DHT22;5316;49.538;8.352;2024-02-16T03:32:08;12.20;99.90
10536;DHT22;5316;49.538;8.352;2024-02-16T03:34:35;12.20;99.90
10536;DHT22;5316;49.538;8.352;2024-02-16T03:37:02;12.20;99.90
10536;DHT22;5316;49.538;8.352;2024-02-16T03:39:29;12.20;99.90
10536;DHT22;5316;49.538;8.352;2024-02-16T03:41:55;12.20;99.90
10536;DHT22;5316;49.538;8.352;2024-02-16T03:44:22;12.20;99.90
10536;DHT22;5316;49.538;8.352;2024-02-16T03:46:49;12.30;89.70
10536;DHT22;5316;49.538;8.352;2024-02-16T03:49:17;12.20;39.00
10536;DHT22;5316;49.538;8.352;2024-02-16T03:51:44;12.20;1.00
10536;DHT22;5316;49.538;8.352;2024-02-16T03:54:11;12.20;1.00
10536;DHT22;5316;49.538;8.352;2024-02-16T03:56:38;12.20;1.00
10536;DHT22;5316;49.538;8.352;2024-02-16T03:59:04;12.20;1.00
10536;DHT22;5316;49.538;8.352;2024-02-16T04:01:32;12.10;1.00
10536;DHT22;5316;49.538;8.352;2024-02-16T04:03:58;12.10;1.00
10536;DHT22;5316;49.538;8.352;2024-02-16T04:06:26;12.10;7.00
10536;DHT22;5316;49.538;8.352;2024-02-16T04:08:53;12.10;8.20
10536;DHT22;5316;49.538;8.352;2024-02-16T04:11:20;12.00;45.60
10536;DHT22;5316;49.538;8.352;2024-02-16T04:13:47;12.00;99.90
10536;DHT22;5316;49.538;8.352;2024-02-16T04:16:14;12.00;99.90
10536;DHT22;5316;49.538;8.352;2024-02-16T04:18:41;12.00;99.90
10536;DHT22;5316;49.538;8.352;2024-02-16T04:21:08;12.00;99.90
10536;DHT22;5316;49.538;8.352;2024-02-16T04:23:36;12.00;99.90
10536;DHT22;5316;49.538;8.352;2024-02-16T04:26:03;11.90;99.90
10536;DHT22;5316;49.538;8.352;2024-02-16T04:28:32;11.90;99.90
10536;DHT22;5316;49.538;8.352;2024-02-16T04:30:58;11.90;99.90
10536;DHT22;5316;49.538;8.352;2024-02-16T04:33:24;11.90;99.90
10536;DHT22;5316;49.538;8.352;2024-02-16T04:35:51;11.90;99.90
10536;DHT22;5316;49.538;8.352;2024-02-16T04:38:18;11.90;99.90
10536;DHT22;5316;49.538;8.352;2024-02-16T04:40:46;11.90;99.90
10536;DHT22;5316;49.538;8.352;2024-02-16T04:43:13;11.90;99.90
10536;DHT22;5316;49.538;8.352;2024-02-16T04:45:39;11.90;99.90
10536;DHT22;5316;49.538;8.352;2024-02-16T04:48:07;11.90;99.90
10536;DHT22;5316;49.538;8.352;2024-02-16T04:50:34;11.80;99.90
10536;DHT22;5316;49.538;8.352;2024-02-16T04:53:01;11.80;99.90
10536;DHT22;5316;49.538;8.352;2024-02-16T04:55:28;11.80;96.40
10536;DHT22;5316;49.538;8.352;2024-02-16T04:57:56;11.80;1.00
10536;DHT22;5316;49.538;8.352;2024-02-16T05:00:24;11.80;99.90
10536;DHT22;5316;49.538;8.352;2024-02-16T05:02:51;11.80;99.90
10536;DHT22;5316;49.538;8.352;2024-02-16T05:05:18;11.80;4.10
10536;DHT22;5316;49.538;8.352;2024-02-16T05:07:48;11.80;1.00
10536;DHT22;5316;49.538;8.352;2024-02-16T05:10:15;11.80;1.00
10536;DHT22;5316;49.538;8.352;2024-02-16T05:12:41;11.80;1.00
10536;DHT22;5316;49.538;8.352;2024-02-16T05:15:10;11.80;1.00
10536;DHT22;5316;49.538;8.352;2024-02-16T05:17:38;11.80;1.00
10536;DHT22;5316;49.538;8.352;2024-02-16T05:20:09;11.80;99.90
10536;DHT22;5316;49.538;8.352;2024-02-16T05:22:41;11.90;99.90
10536;DHT22;5316;49.538;8.352;2024-02-16T05:25:08;11.80;99.90
10536;DHT22;5316;49.538;8.352;2024-02-16T05:27:35;11.80;99.90
10536;DHT22;5316;49.538;8.352;2024-02-16T05:30:03;11.90;61.80
10536;DHT22;5316;49.538;8.352;2024-02-16T05:32:34;11.90;1.00
10536;DHT22;5316;49.538;8.352;2024-02-16T05:35:01;11.90;1.00
10536;DHT22;5316;49.538;8.352;2024-02-16T05:37:30;11.90;1.00
10536;DHT22;5316;49.538;8.352;2024-02-16T05:39:57;11.90;99.90
10536;DHT22;5316;49.538;8.352;2024-02-16T05:42:34;11.90;1.00
10536;DHT22;5316;49.538;8.352;2024-02-16T05:45:01;11.90;1.00
10536;DHT22;5316;49.538;8.352;2024-02-16T05:47:28;11.80;1.00
10536;DHT22;5316;49.538;8.352;2024-02-16T05:49:56;11.80;1.00
10536;DHT22;5316;49.538;8.352;2024-02-16T05:52:24;11.80;19.70
10536;DHT22;5316;49.538;8.352;2024-02-16T05:54:50;11.80;1.00
10536;DHT22;5316;49.538;8.352;2024-02-16T05:57:18;11.80;99.90
10536;DHT22;5316;49.538;8.352;2024-02-16T05:59:45;11.70;99.90
10536;DHT22;5316;49.538;8.352;2024-02-16T06:02:12;11.60;1.00
10536;DHT22;5316;49.538;8.352;2024-02-16T06:04:39;11.60;1.00
10536;DHT22;5316;49.538;8.352;2024-02-16T06:07:07;11.50;90.70
10536;DHT22;5316;49.538;8.352;2024-02-16T06:09:34;11.50;99.90
10536;DHT22;5316;49.538;8.352;2024-02-16T06:12:03;11.50;99.90
10536;DHT22;5316;49.538;8.352;2024-02-16T06:14:32;11.40;1.00
10536;DHT22;5316;49.538;8.352;2024-02-16T06:17:18;11.40;1.00
10536;DHT22;5316;49.538;8.352;2024-02-16T06:19:44;11.40;1.00
10536;DHT22;5316;49.538;8.352;2024-02-16T06:22:13;11.30;8.00
10536;DHT22;5316;49.538;8.352;2024-02-16T06:24:40;11.30;97.30
10536;DHT22;5316;49.538;8.352;2024-02-16T06:27:07;11.30;99.90
10536;DHT22;5316;49.538;8.352;2024-02-16T06:29:34;11.30;99.90
10536;DHT22;5316;49.538;8.352;2024-02-16T06:32:01;11.20;99.90
10536;DHT22;5316;49.538;8.352;2024-02-16T06:34:29;11.20;99.90
10536;DHT22;5316;49.538;8.352;2024-02-16T06:36:56;11.20;99.90
10536;DHT22;5316;49.538;8.352;2024-02-16T06:39:24;11.20;99.90
10536;DHT22;5316;49.538;8.352;2024-02-16T06:41:51;11.30;99.90
10536;DHT22;5316;49.538;8.352;2024-02-16T06:44:17;11.30;99.90
10536;DHT22;5316;49.538;8.352;2024-02-16T06:46:44;11.30;99.90
10536;DHT22;5316;49.538;8.352;2024-02-16T06:49:11;11.30;99.90
10536;DHT22;5316;49.538;8.352;2024-02-16T06:51:37;11.30;99.90
10536;DHT22;5316;49.538;8.352;2024-02-16T06:54:04;11.30;99.90
10536;DHT22;5316;49.538;8.352;2024-02-16T06:56:32;11.30;88.90
10536;DHT22;5316;49.538;8.352;2024-02-16T06:58:59;11.30;83.20
10536;DHT22;5316;49.538;8.352;2024-02-16T07:01:26;11.30;93.20
10536;DHT22;5316;49.538;8.352;2024-02-16T07:03:53;11.40;5.50
10536;DHT22;5316;49.538;8.352;2024-02-16T07:06:19;11.40;1.00
10536;DHT22;5316;49.538;8.352;2024-02-16T07:08:46;11.40;1.00
10536;DHT22;5316;49.538;8.352;2024-02-16T07:11:13;11.50;1.00
10536;DHT22;5316;49.538;8.352;2024-02-16T07:13:41;11.50;1.00
10536;DHT22;5316;49.538;8.352;2024-02-16T07:16:09;11.60;1.00
10536;DHT22;5316;49.538;8.352;2024-02-16T07:18:35;11.60;1.00
10536;DHT22;5316;49.538;8.352;2024-02-16T07:21:03;11.60;1.00
10536;DHT22;5316;49.538;8.352;2024-02-16T07:23:29;11.60;99.90
10536;DHT22;5316;49.538;8.352;2024-02-16T07:25:56;11.70;99.90
10536;DHT22;5316;49.538;8.352;2024-02-16T07:28:23;11.70;99.90
10536;DHT22;5316;49.538;8.352;2024-02-16T07:30:51;11.70;99.90
10536;DHT22;5316;49.538;8.352;2024-02-16T07:33:19;11.70;95.20
10536;DHT22;5316;49.538;8.352;2024-02-16T07:35:46;11.70;99.90
10536;DHT22;5316;49.538;8.352;2024-02-16T07:38:13;11.80;1.00
10536;DHT22;5316;49.538;8.352;2024-02-16T07:40:39;11.80;1.00
10536;DHT22;5316;49.538;8.352;2024-02-16T07:43:06;11.90;1.00
10536;DHT22;5316;49.538;8.352;2024-02-16T07:45:34;11.90;1.00
10536;DHT22;5316;49.538;8.352;2024-02-16T07:48:02;11.90;99.90
10536;DHT22;5316;49.538;8.352;2024-02-16T07:50:30;12.00;57.60
10536;DHT22;5316;49.538;8.352;2024-02-16T07:52:57;12.10;1.00
10536;DHT22;5316;49.538;8.352;2024-02-16T07:55:24;12.10;1.00
10536;DHT22;5316;49.538;8.352;2024-02-16T07:57:51;12.10;99.90
10536;DHT22;5316;49.538;8.352;2024-02-16T08:00:18;12.20;99.90
10536;DHT22;5316;49.538;8.352;2024-02-16T08:02:45;12.20;99.90
10536;DHT22;5316;49.538;8.352;2024-02-16T08:05:13;12.30;1.00
10536;DHT22;5316;49.538;8.352;2024-02-16T08:07:40;12.30;1.00
10536;DHT22;5316;49.538;8.352;2024-02-16T08:10:08;12.40;1.00
10536;DHT22;5316;49.538;8.352;2024-02-16T08:12:35;12.40;1.00
10536;DHT22;5316;49.538;8.352;2024-02-16T08:15:04;12.50;99.90
10536;DHT22;5316;49.538;8.352;2024-02-16T08:17:32;12.50;99.90
10536;DHT22;5316;49.538;8.352;2024-02-16T08:20:00;12.50;99.90
10536;DHT22;5316;49.538;8.352;2024-02-16T08:22:28;12.60;99.90
10536;DHT22;5316;49.538;8.352;2024-02-16T08:24:54;12.60;99.90
10536;DHT22;5316;49.538;8.352;2024-02-16T08:27:21;12.60;99.90
10536;DHT22;5316;49.538;8.352;2024-02-16T08:29:48;12.70;99.90
10536;DHT22;5316;49.538;8.352;2024-02-16T08:32:15;12.70;1.00
10536;DHT22;5316;49.538;8.352;2024-02-16T08:34:42;12.80;1.00
10536;DHT22;5316;49.538;8.352;2024-02-16T08:37:09;12.80;99.90
10536;DHT22;5316;49.538;8.352;2024-02-16T08:39:38;12.80;99.90
10536;DHT22;5316;49.538;8.352;2024-02-16T08:42:05;12.90;99.90
10536;DHT22;5316;49.538;8.352;2024-02-16T08:44:32;12.90;94.90
10536;DHT22;5316;49.538;8.352;2024-02-16T08:46:58;13.00;1.00
10536;DHT22;5316;49.538;8.352;2024-02-16T08:49:25;13.00;1.00
10536;DHT22;5316;49.538;8.352;2024-02-16T08:51:52;13.00;1.00
10536;DHT22;5316;49.538;8.352;2024-02-16T08:54:19;13.10;1.00
10536;DHT22;5316;49.538;8.352;2024-02-16T08:56:47;13.10;1.00
10536;DHT22;5316;49.538;8.352;2024-02-16T08:59:14;13.10;1.00
10536;DHT22;5316;49.538;8.352;2024-02-16T09:01:42;13.10;1.00
10536;DHT22;5316;49.538;8.352;2024-02-16T09:04:09;13.20;1.00
10536;DHT22;5316;49.538;8.352;2024-02-16T09:06:36;13.30;1.00
10536;DHT22;5316;49.538;8.352;2024-02-16T09:09:04;13.30;99.90
10536;DHT22;5316;49.538;8.352;2024-02-16T09:11:32;13.40;99.90
10536;DHT22;5316;49.538;8.352;2024-02-16T09:14:00;13.40;99.90
10536;DHT22;5316;49.538;8.352;2024-02-16T09:16:27;13.50;83.60
10536;DHT22;5316;49.538;8.352;2024-02-16T09:18:54;13.50;1.00
10536;DHT22;5316;49.538;8.352;2024-02-16T09:21:20;13.50;1.00
10536;DHT22;5316;49.538;8.352;2024-02-16T09:23:49;13.60;1.00
10536;DHT22;5316;49.538;8.352;2024-02-16T09:26:16;13.70;1.00
10536;DHT22;5316;49.538;8.352;2024-02-16T09:28:42;13.80;1.00
10536;DHT22;5316;49.538;8.352;2024-02-16T09:31:13;13.80;99.90
10536;DHT22;5316;49.538;8.352;2024-02-16T09:33:40;13.90;99.90
10536;DHT22;5316;49.538;8.352;2024-02-16T09:36:07;14.00;99.90
10536;DHT22;5316;49.538;8.352;2024-02-16T09:38:34;14.10;1.00
10536;DHT22;5316;49.538;8.352;2024-02-16T09:41:01;14.20;1.00
10536;DHT22;5316;49.538;8.352;2024-02-16T09:43:29;14.30;1.00
10536;DHT22;5316;49.538;8.352;2024-02-16T09:45:57;14.40;1.00
10536;DHT22;5316;49.538;8.352;2024-02-16T09:48:27;14.40;1.00
10536;DHT22;5316;49.538;8.352;2024-02-16T09:50:54;14.50;7.60
10536;DHT22;5316;49.538;8.352;2024-02-16T09:53:25;14.50;1.00
10536;DHT22;5316;49.538;8.352;2024-02-16T09:55:52;14.50;1.00
10536;DHT22;5316;49.538;8.352;2024-02-16T09:58:20;14.50;1.00
10536;DHT22;5316;49.538;8.352;2024-02-16T10:00:50;14.60;1.00
10536;DHT22;5316;49.538;8.352;2024-02-16T10:03:26;14.60;1.00
10536;DHT22;5316;49.538;8.352;2024-02-16T10:06:04;14.60;17.60
10536;DHT22;5316;49.538;8.352;2024-02-16T10:08:32;14.70;46.30
10536;DHT22;5316;49.538;8.352;2024-02-16T10:11:02;14.80;4.80
10536;DHT22;5316;49.538;8.352;2024-02-16T10:13:29;15.00;1.00
10536;DHT22;5316;49.538;8.352;2024-02-16T10:16:06;15.00;1.00
10536;DHT22;5316;49.538;8.352;2024-02-16T10:18:36;15.10;1.00
10536;DHT22;5316;49.538;8.352;2024-02-16T10:21:03;15.10;1.00
10536;DHT22;5316;49.538;8.352;2024-02-16T10:23:30;15.20;1.00
10536;DHT22;5316;49.538;8.352;2024-02-16T10:25:57;15.30;1.00
10536;DHT22;5316;49.538;8.352;2024-02-16T10:28:24;15.30;1.00
10536;DHT22;5316;49.538;8.352;2024-02-16T10:30:57;15.30;1.00
10536;DHT22;5316;49.538;8.352;2024-02-16T10:33:24;15.30;1.00
10536;DHT22;5316;49.538;8.352;2024-02-16T10:35:55;15.30;1.00
10536;DHT22;5316;49.538;8.352;2024-02-16T10:38:23;15.40;1.00
10536;DHT22;5316;49.538;8.352;2024-02-16T10:40:51;15.40;1.00
10536;DHT22;5316;49.538;8.352;2024-02-16T10:43:20;15.40;1.00
10536;DHT22;5316;49.538;8.352;2024-02-16T10:45:47;15.40;1.00
10536;DHT22;5316;49.538;8.352;2024-02-16T10:48:18;15.50;1.00
10536;DHT22;5316;49.538;8.352;2024-02-16T10:50:45;15.50;1.00
10536;DHT22;5316;49.538;8.352;2024-02-16T10:53:18;15.60;1.00
10536;DHT22;5316;49.538;8.352;2024-02-16T10:55:46;15.60;99.90
10536;DHT22;5316;49.538;8.352;2024-02-16T10:58:13;15.70;99.90
10536;DHT22;5316;49.538;8.352;2024-02-16T11:00:51;15.70;99.90
10536;DHT22;5316;49.538;8.352;2024-02-16T11:03:21;15.80;99.90
10536;DHT22;5316;49.538;8.352;2024-02-16T11:05:49;16.00;23.60
10536;DHT22;5316;49.538;8.352;2024-02-16T11:08:19;16.10;1.00
10536;DHT22;5316;49.538;8.352;2024-02-16T11:10:56;16.30;1.00
10536;DHT22;5316;49.538;8.352;2024-02-16T11:13:23;16.40;1.00
10536;DHT22;5316;49.538;8.352;2024-02-16T11:15:57;16.60;1.00
10536;DHT22;5316;49.538;8.352;2024-02-16T11:18:25;16.70;99.90
10536;DHT22;5316;49.538;8.352;2024-02-16T11:20:52;16.80;99.90
10536;DHT22;5316;49.538;8.352;2024-02-16T11:23:26;16.90;99.90
10536;DHT22;5316;49.538;8.352;2024-02-16T11:25:53;17.00;99.90
10536;DHT22;5316;49.538;8.352;2024-02-16T11:28:20;17.20;99.90
10536;DHT22;5316;49.538;8.352;2024-02-16T11:30:47;17.20;99.90
10536;DHT22;5316;49.538;8.352;2024-02-16T11:33:13;17.40;99.90
10536;DHT22;5316;49.538;8.352;2024-02-16T11:35:40;17.40;99.90
10536;DHT22;5316;49.538;8.352;2024-02-16T11:38:08;17.50;96.80
10536;DHT22;5316;49.538;8.352;2024-02-16T11:40:36;17.50;30.70
10536;DHT22;5316;49.538;8.352;2024-02-16T11:43:03;17.50;73.00
10536;DHT22;5316;49.538;8.352;2024-02-16T11:45:33;17.40;36.60
10536;DHT22;5316;49.538;8.352;2024-02-16T11:48:05;17.40;53.80
10536;DHT22;5316;49.538;8.352;2024-02-16T11:50:32;17.30;70.90
10536;DHT22;5316;49.538;8.352;2024-02-16T11:52:58;17.30;99.90
10536;DHT22;5316;49.538;8.352;2024-02-16T11:55:25;17.20;99.90
10536;DHT22;5316;49.538;8.352;2024-02-16T11:57:53;17.20;99.90
10536;DHT22;5316;49.538;8.352;2024-02-16T12:00:22;17.20;99.90
10536;DHT22;5316;49.538;8.352;2024-02-16T12:02:58;17.10;99.90
10536;DHT22;5316;49.538;8.352;2024-02-16T12:05:25;17.10;99.90
10536;DHT22;5316;49.538;8.352;2024-02-16T12:07:52;17.10;99.90
10536;DHT22;5316;49.538;8.352;2024-02-16T12:10:19;17.20;99.90
10536;DHT22;5316;49.538;8.352;2024-02-16T12:12:47;17.30;99.90
10536;DHT22;5316;49.538;8.352;2024-02-16T12:15:15;17.30;99.90
10536;DHT22;5316;49.538;8.352;2024-02-16T12:17:43;17.40;99.90
10536;DHT22;5316;49.538;8.352;2024-02-16T12:20:11;17.40;99.90
10536;DHT22;5316;49.538;8.352;2024-02-16T12:22:38;17.40;99.90
10536;DHT22;5316;49.538;8.352;2024-02-16T12:25:06;17.50;99.90
10536;DHT22;5316;49.538;8.352;2024-02-16T12:27:33;17.60;57.60
10536;DHT22;5316;49.538;8.352;2024-02-16T12:29:59;17.60;51.00
10536;DHT22;5316;49.538;8.352;2024-02-16T12:32:28;17.60;68.70
10536;DHT22;5316;49.538;8.352;2024-02-16T12:34:54;17.60;22.10
10536;DHT22;5316;49.538;8.352;2024-02-16T12:37:23;17.70;57.70
10536;DHT22;5316;49.538;8.352;2024-02-16T12:39:49;17.70;1.30
10536;DHT22;5316;49.538;8.352;2024-02-16T12:42:16;17.70;1.00
10536;DHT22;5316;49.538;8.352;2024-02-16T12:44:43;17.70;32.40
10536;DHT22;5316;49.538;8.352;2024-02-16T12:47:09;17.70;1.00
10536;DHT22;5316;49.538;8.352;2024-02-16T12:49:37;17.70;1.30
10536;DHT22;5316;49.538;8.352;2024-02-16T12:52:04;17.70;10.00
10536;DHT22;5316;49.538;8.352;2024-02-16T12:54:31;17.70;12.60
10536;DHT22;5316;49.538;8.352;2024-02-16T12:56:58;17.80;45.70
10536;DHT22;5316;49.538;8.352;2024-02-16T12:59:25;17.90;51.60
10536;DHT22;5316;49.538;8.352;2024-02-16T13:01:52;17.90;58.00
10536;DHT22;5316;49.538;8.352;2024-02-16T13:04:19;18.00;96.80
10536;DHT22;5316;49.538;8.352;2024-02-16T13:06:49;18.30;1.00
10536;DHT22;5316;49.538;8.352;2024-02-16T13:09:17;18.30;1.00
10536;DHT22;5316;49.538;8.352;2024-02-16T13:11:44;18.40;1.00
10536;DHT22;5316;49.538;8.352;2024-02-16T13:14:11;18.50;1.00
10536;DHT22;5316;49.538;8.352;2024-02-16T13:16:38;18.50;1.00
10536;DHT22;5316;49.538;8.352;2024-02-16T13:19:04;18.60;1.00
10536;DHT22;5316;49.538;8.352;2024-02-16T13:21:31;18.50;1.00
10536;DHT22;5316;49.538;8.352;2024-02-16T13:23:59;18.40;1.00
10536;DHT22;5316;49.538;8.352;2024-02-16T13:26:26;18.30;1.00
10536;DHT22;5316;49.538;8.352;2024-02-16T13:28:52;18.10;1.00
10536;DHT22;5316;49.538;8.352;2024-02-16T13:31:20;18.00;1.00
10536;DHT22;5316;49.538;8.352;2024-02-16T13:33:47;17.90;1.00
10536;DHT22;5316;49.538;8.352;2024-02-16T13:36:14;17.80;1.00
10536;DHT22;5316;49.538;8.352;2024-02-16T13:38:40;17.70;6.70
10536;DHT22;5316;49.538;8.352;2024-02-16T13:41:09;17.60;29.20
10536;DHT22;5316;49.538;8.352;2024-02-16T13:43:36;17.50;48.90
10536;DHT22;5316;49.538;8.352;2024-02-16T13:46:03;17.40;95.70
10536;DHT22;5316;49.538;8.352;2024-02-16T13:48:30;17.30;99.90
10536;DHT22;5316;49.538;8.352;2024-02-16T13:50:58;17.20;99.90
10536;DHT22;5316;49.538;8.352;2024-02-16T13:53:25;17.10;99.90
10536;DHT22;5316;49.538;8.352;2024-02-16T13:55:52;17.10;99.90
10536;DHT22;5316;49.538;8.352;2024-02-16T13:58:21;17.00;1.00
10536;DHT22;5316;49.538;8.352;2024-02-16T14:00:48;16.90;1.00
10536;DHT22;5316;49.538;8.352;2024-02-16T14:03:16;16.70;99.90
10536;DHT22;5316;49.538;8.352;2024-02-16T14:05:44;16.60;99.90
10536;DHT22;5316;49.538;8.352;2024-02-16T14:08:12;16.50;99.90
10536;DHT22;5316;49.538;8.352;2024-02-16T14:10:40;16.50;99.90
10536;DHT22;5316;49.538;8.352;2024-02-16T14:13:07;16.40;99.90
10536;DHT22;5316;49.538;8.352;2024-02-16T14:15:36;16.40;1.00
10536;DHT22;5316;49.538;8.352;2024-02-16T14:18:03;16.30;1.00
10536;DHT22;5316;49.538;8.352;2024-02-16T14:20:32;16.30;1.00
10536;DHT22;5316;49.538;8.352;2024-02-16T14:22:59;16.20;21.70
10536;DHT22;5316;49.538;8.352;2024-02-16T14:25:28;16.20;99.90
10536;DHT22;5316;49.538;8.352;2024-02-16T14:27:54;16.20;99.90
10536;DHT22;5316;49.538;8.352;2024-02-16T14:30:21;16.10;99.90
10536;DHT22;5316;49.538;8.352;2024-02-16T14:32:49;16.10;1.00
10536;DHT22;5316;49.538;8.352;2024-02-16T14:35:18;16.00;1.00
10536;DHT22;5316;49.538;8.352;2024-02-16T14:37:47;15.90;67.50
10536;DHT22;5316;49.538;8.352;2024-02-16T14:40:15;15.90;16.30
10536;DHT22;5316;49.538;8.352;2024-02-16T14:42:42;15.80;77.80
10536;DHT22;5316;49.538;8.352;2024-02-16T14:45:09;15.80;99.90
10536;DHT22;5316;49.538;8.352;2024-02-16T14:47:44;15.80;1.00
10536;DHT22;5316;49.538;8.352;2024-02-16T14:50:13;15.70;1.00
10536;DHT22;5316;49.538;8.352;2024-02-16T14:52:40;15.70;1.00
10536;DHT22;5316;49.538;8.352;2024-02-16T14:55:07;15.70;21.10
10536;DHT22;5316;49.538;8.352;2024-02-16T14:57:36;15.60;99.90
10536;DHT22;5316;49.538;8.352;2024-02-16T15:00:03;15.60;1.00
10536;DHT22;5316;49.538;8.352;2024-02-16T15:02:30;15.60;1.00
10536;DHT22;5316;49.538;8.352;2024-02-16T15:04:56;15.50;99.90
10536;DHT22;5316;49.538;8.352;2024-02-16T15:07:25;15.50;1.00
10536;DHT22;5316;49.538;8.352;2024-02-16T15:09:51;15.50;99.90
10536;DHT22;5316;49.538;8.352;2024-02-16T15:12:18;15.40;99.90
10536;DHT22;5316;49.538;8.352;2024-02-16T15:14:45;15.40;1.00
10536;DHT22;5316;49.538;8.352;2024-02-16T15:17:13;15.40;1.00
10536;DHT22;5316;49.538;8.352;2024-02-16T15:19:40;15.30;99.90
10536;DHT22;5316;49.538;8.352;2024-02-16T15:22:07;15.30;99.90
10536;DHT22;5316;49.538;8.352;2024-02-16T15:24:35;15.20;1.00
10536;DHT22;5316;49.538;8.352;2024-02-16T15:27:02;15.20;91.40
10536;DHT22;5316;49.538;8.352;2024-02-16T15:29:30;15.20;99.90
10536;DHT22;5316;49.538;8.352;2024-02-16T15:31:58;15.20;99.90
10536;DHT22;5316;49.538;8.352;2024-02-16T15:34:25;15.20;1.00
10536;DHT22;5316;49.538;8.352;2024-02-16T15:36:53;15.10;1.00
10536;DHT22;5316;49.538;8.352;2024-02-16T15:39:23;15.10;1.00
10536;DHT22;5316;49.538;8.352;2024-02-16T15:41:52;15.00;1.00
10536;DHT22;5316;49.538;8.352;2024-02-16T15:44:19;15.00;1.00
10536;DHT22;5316;49.538;8.352;2024-02-16T15:46:45;15.00;1.00
10536;DHT22;5316;49.538;8.352;2024-02-16T15:49:12;15.00;1.00
10536;DHT22;5316;49.538;8.352;2024-02-16T15:51:39;15.00;1.00
10536;DHT22;5316;49.538;8.352;2024-02-16T15:54:06;15.00;1.00